Terminal Aerodrome Forecast
Issued by NWS

Home | Current Version | Previous Version | Text Only | Print | Product List | Glossary On
Versions: 1 2 3 4 5 6 7 8 9 10 11 12
000
FTUS46 KLOX 290500
TAFSBA
TAF
KSBA 290538Z 2906/3006 VRB05KT P6SM SCT004
     FM291300 VRB03KT 4SM BR BKN004
     FM291700 16005KT P6SM SKC
     FM292000 22005KT P6SM SKC
     FM292300 25007KT P6SM SKC
     FM300300 VRB05KT P6SM SKC=

USA.gov is the U.S. government's official web portal to all federal, state and local government web resources and services.